首页
METAR-TAF:

METAR-TAF

机场 :

Fort Huachuca / Sierra Vista, 亞利桑那州, 美国

纬度: 31-35N, 经度: 110-20W, 海拔: 1438米

当前天气观测

该预报发布于19分钟前的16:58 UTC
风速5节,风向东转东北
温度 28°C
湿度 27%
气压 1021 hPa
能見度: 16.1公里
天空无云

METAR: KFHU 011658Z AUTO 07005KT 10SM CLR 28/07 A3016 RMK AO2 SLP135 T02800068

时间: 10:17 (17:17 UTC)

预报

该预报发布于7小时和18分钟前的09:59 UTC
预报有效从01日的 10点(UTC)到 02日的 16点(UTC)
风速9节,风向西
能见度10公里或以上
天空无云
成为
从 01日的 20点(UTC)到 01日的 21点(UTC)
风速13节,风向西,有时为20节阵风
能见度10公里或以上
散云层高于10000英尺, 积雨云.
附近有雷暴
成为
从 02日的 02点(UTC)到 02日的 03点(UTC)
风速15节,风向西转西南,有时为20节阵风
能见度10公里或以上
少量云层高于23000英尺
成为
从 02日的 09点(UTC)到 02日的 10点(UTC)
风速9节,风向西转西南
能见度10公里或以上
天空无云

TAF: KFHU 010959Z 0110/0216 27009KT 9999 SKC QNH3010INS BECMG 0120/0121 26013G20KT 9999 VCTS SCT100CB QNH3008INS BECMG 0202/0203 24015G20KT 9999 NSW FEW230 QNH3007INS BECMG 0209/0210 25009KT 9999 SKC QNH3009INS TX31/0119Z TN16/0110Z

超过4000个机场的气象观测和天气预报(METAR&TAF报告)。

可查询的气象台以黄色和红色小点在地图上表示。

将鼠标移到小点上方,可查看气象台名称。

然后点击查看天气观测和预报。

如需切换地图:点击带黑十字的绿色按钮放大地图;点击带横线的绿色按钮缩小地图;或者点击绿色箭头查看邻近地区的地图。


METAR-TAF: